createdAt,value
2023-05-08T00:01:47.765Z,8.20
2023-05-08T00:04:15.553Z,9.07
2023-05-08T00:06:43.169Z,8.35
2023-05-08T00:09:11.556Z,8.80
2023-05-08T00:11:39.110Z,8.15
2023-05-08T00:14:06.612Z,7.85
2023-05-08T00:16:34.176Z,8.32
2023-05-08T00:19:01.201Z,7.60
2023-05-08T00:21:29.079Z,8.07
2023-05-08T00:23:56.070Z,7.40
2023-05-08T00:26:23.494Z,9.00
2023-05-08T00:28:50.616Z,8.32
2023-05-08T00:31:18.516Z,8.35
2023-05-08T00:33:45.580Z,9.07
2023-05-08T00:36:36.382Z,10.10
2023-05-08T00:39:29.131Z,9.35
2023-05-08T00:41:56.720Z,9.30
2023-05-08T00:44:24.252Z,9.27
2023-05-08T00:46:51.463Z,9.65
2023-05-08T00:49:19.006Z,9.88
2023-05-08T00:51:48.130Z,9.90
2023-05-08T00:54:15.739Z,10.63
2023-05-08T00:56:44.046Z,11.00
2023-05-08T00:59:14.390Z,10.27
2023-05-08T01:01:42.597Z,10.98
2023-05-08T01:04:10.004Z,12.05
2023-05-08T01:06:37.576Z,11.57
2023-05-08T01:09:05.145Z,11.27
2023-05-08T01:11:43.968Z,11.85
2023-05-08T01:14:40.452Z,11.57
2023-05-08T01:17:15.527Z,12.77
2023-05-08T01:20:08.410Z,12.05
2023-05-08T01:23:01.825Z,11.15
2023-05-08T01:26:02.300Z,10.73
2023-05-08T01:28:55.879Z,10.93
2023-05-08T01:31:45.026Z,11.63
2023-05-08T01:34:37.210Z,11.15
2023-05-08T01:37:04.608Z,10.38
2023-05-08T01:39:42.593Z,11.10
2023-05-08T01:42:23.731Z,10.82
2023-05-08T01:44:56.921Z,11.10
2023-05-08T01:47:29.140Z,10.50
2023-05-08T01:50:17.139Z,11.30
2023-05-08T01:52:55.289Z,10.82
2023-05-08T01:55:30.885Z,10.80
2023-05-08T01:58:00.054Z,10.82
2023-05-08T02:00:30.372Z,10.82
2023-05-08T02:02:58.577Z,11.60
2023-05-08T02:05:28.124Z,11.32
2023-05-08T02:07:56.142Z,11.75
2023-05-08T02:10:25.254Z,10.90
2023-05-08T02:12:53.310Z,12.00
2023-05-08T02:15:21.531Z,11.63
2023-05-08T02:17:50.151Z,11.43
2023-05-08T02:20:18.547Z,11.25
2023-05-08T02:22:49.124Z,12.23
2023-05-08T02:25:17.128Z,10.95
2023-05-08T02:27:46.732Z,11.82
2023-05-08T02:30:18.260Z,10.68
2023-05-08T02:32:47.974Z,11.98
2023-05-08T02:35:17.053Z,11.70
2023-05-08T02:37:46.994Z,11.20
2023-05-08T02:40:15.621Z,11.38
2023-05-08T02:42:43.647Z,11.00
2023-05-08T02:45:12.453Z,10.73
2023-05-08T02:47:46.204Z,10.90
2023-05-08T02:50:20.705Z,10.90
2023-05-08T02:53:11.476Z,10.82
2023-05-08T02:55:49.979Z,11.80
2023-05-08T02:58:17.892Z,11.40
2023-05-08T03:01:08.764Z,12.60
2023-05-08T03:03:42.157Z,12.25
2023-05-08T03:06:18.646Z,12.35
2023-05-08T03:08:47.729Z,11.88
2023-05-08T03:11:21.922Z,11.48
2023-05-08T03:13:50.391Z,11.52
2023-05-08T03:16:23.629Z,11.55
2023-05-08T03:18:57.050Z,11.98
2023-05-08T03:21:25.429Z,11.30
2023-05-08T03:23:53.292Z,11.20
2023-05-08T03:26:21.478Z,11.60
2023-05-08T03:28:52.235Z,11.60
2023-05-08T03:31:23.442Z,12.15
2023-05-08T03:33:55.544Z,12.32
2023-05-08T03:36:22.921Z,12.05
2023-05-08T03:39:00.921Z,11.57
2023-05-08T03:41:28.124Z,11.00
2023-05-08T03:43:56.822Z,11.57
2023-05-08T03:46:26.466Z,11.25
2023-05-08T03:48:54.608Z,12.27
2023-05-08T03:51:22.784Z,12.02
2023-05-08T03:54:09.455Z,10.55
2023-05-08T03:56:39.436Z,11.82
2023-05-08T04:02:15.574Z,10.93
2023-05-08T04:07:13.218Z,11.10
2023-05-08T04:13:21.980Z,10.85
2023-05-08T04:15:55.933Z,10.88
2023-05-08T04:18:37.292Z,10.38
2023-05-08T04:21:39.247Z,10.45
2023-05-08T04:24:16.873Z,11.55
2023-05-08T04:26:46.155Z,11.80
2023-05-08T04:32:49.923Z,11.63
2023-05-08T04:35:30.865Z,11.88
2023-05-08T04:38:10.357Z,10.88
2023-05-08T04:40:48.105Z,10.85
2023-05-08T04:43:19.909Z,11.05
2023-05-08T04:45:57.339Z,12.13
2023-05-08T04:52:13.693Z,11.15
2023-05-08T04:57:34.773Z,10.25
2023-05-08T05:02:56.165Z,11.00
2023-05-08T05:05:33.185Z,10.60
2023-05-08T05:08:10.350Z,10.57
2023-05-08T05:10:39.549Z,10.43
2023-05-08T05:13:08.750Z,10.43
2023-05-08T05:15:39.779Z,10.15
2023-05-08T05:18:07.381Z,10.18
2023-05-08T05:20:34.507Z,10.10
2023-05-08T05:23:26.195Z,10.43
2023-05-08T05:26:02.821Z,9.60
2023-05-08T05:28:34.497Z,8.50
2023-05-08T05:31:05.097Z,7.30
2023-05-08T05:34:13.211Z,7.25
2023-05-08T05:36:59.332Z,7.05
2023-05-08T08:13:37.314Z,6.72
